createdAt,value
2017-12-23T00:01:10.644Z,8.30
2017-12-23T00:03:37.221Z,8.30
2017-12-23T00:06:03.899Z,8.30
2017-12-23T00:08:30.424Z,8.30
2017-12-23T00:10:56.927Z,8.30
2017-12-23T00:13:24.173Z,8.20
2017-12-23T00:15:50.706Z,8.20
2017-12-23T00:18:17.162Z,8.20
2017-12-23T00:20:43.664Z,8.30
2017-12-23T00:23:10.153Z,8.30
2017-12-23T00:25:36.654Z,8.20
2017-12-23T00:28:04.162Z,8.20
2017-12-23T00:30:30.660Z,8.30
2017-12-23T00:32:57.826Z,8.20
2017-12-23T00:35:24.260Z,8.20
2017-12-23T00:37:51.431Z,8.20
2017-12-23T00:40:17.871Z,8.20
2017-12-23T00:42:44.314Z,8.30
2017-12-23T00:45:10.857Z,8.20
2017-12-23T00:47:37.299Z,8.20
2017-12-23T00:50:04.277Z,8.20
2017-12-23T00:52:30.757Z,8.30
2017-12-23T00:54:57.159Z,8.20
2017-12-23T00:57:23.596Z,8.30
2017-12-23T00:59:50.816Z,8.20
2017-12-23T01:02:18.044Z,8.20
2017-12-23T01:04:44.499Z,8.20
2017-12-23T01:07:10.959Z,8.20
2017-12-23T01:09:37.847Z,8.20
2017-12-23T01:12:05.122Z,8.20
2017-12-23T01:14:31.854Z,8.20
2017-12-23T01:16:59.060Z,8.30
2017-12-23T01:19:25.563Z,8.30
2017-12-23T01:21:52.044Z,8.30
2017-12-23T01:24:19.242Z,8.20
2017-12-23T01:26:45.667Z,8.30
2017-12-23T01:29:12.107Z,8.20
2017-12-23T01:31:38.577Z,8.30
2017-12-23T01:34:05.116Z,8.20
2017-12-23T01:36:31.686Z,8.20
2017-12-23T01:38:58.107Z,8.20
2017-12-23T01:41:24.670Z,8.20
2017-12-23T01:43:51.323Z,8.30
2017-12-23T01:46:18.514Z,8.30
2017-12-23T01:48:45.016Z,8.20
2017-12-23T01:51:11.450Z,8.20
2017-12-23T01:53:39.243Z,8.30
2017-12-23T01:56:05.673Z,8.20
2017-12-23T01:58:32.899Z,8.20
2017-12-23T02:01:00.054Z,8.20
2017-12-23T02:03:26.520Z,8.20
2017-12-23T02:05:52.964Z,8.20
2017-12-23T02:08:19.445Z,8.20
2017-12-23T02:10:45.863Z,8.20
2017-12-23T02:13:12.299Z,8.20
2017-12-23T02:15:38.733Z,8.20
2017-12-23T02:18:05.671Z,8.20
2017-12-23T02:20:32.856Z,8.20
2017-12-23T02:22:59.320Z,8.20
2017-12-23T02:25:25.745Z,8.30
2017-12-23T02:27:52.182Z,8.20
2017-12-23T02:30:18.664Z,8.20
2017-12-23T02:32:45.090Z,8.20
2017-12-23T02:35:11.536Z,8.20
2017-12-23T02:37:37.965Z,8.20
2017-12-23T02:40:04.832Z,8.20
2017-12-23T02:42:31.268Z,8.20
2017-12-23T02:44:57.726Z,8.20
2017-12-23T02:47:24.170Z,8.20
2017-12-23T02:49:50.602Z,8.20
2017-12-23T02:52:17.058Z,8.30
2017-12-23T02:54:44.302Z,8.10
2017-12-23T02:57:10.753Z,7.90
2017-12-23T02:59:37.224Z,8.20
2017-12-23T03:02:04.057Z,8.10
2017-12-23T03:04:30.524Z,8.20
2017-12-23T03:06:56.983Z,8.20
2017-12-23T03:09:24.181Z,8.20
2017-12-23T03:11:50.620Z,8.20
2017-12-23T03:14:17.816Z,8.20
2017-12-23T03:16:44.243Z,8.20
2017-12-23T03:19:10.651Z,8.20
2017-12-23T03:21:38.007Z,8.10
2017-12-23T03:24:04.536Z,8.10
2017-12-23T03:26:31.056Z,8.10
2017-12-23T03:28:58.268Z,8.10
2017-12-23T03:31:24.748Z,8.10
2017-12-23T03:33:51.309Z,8.20
2017-12-23T03:36:18.494Z,8.10
2017-12-23T03:38:44.939Z,8.10
2017-12-23T03:41:11.467Z,8.10
2017-12-23T03:43:37.928Z,8.10
2017-12-23T03:46:05.514Z,8.00
2017-12-23T03:48:32.669Z,8.00
2017-12-23T03:50:59.884Z,7.90
2017-12-23T03:53:26.323Z,7.90
2017-12-23T03:55:52.744Z,7.90
2017-12-23T03:58:19.180Z,7.90
2017-12-23T04:00:46.341Z,7.90
2017-12-23T04:03:12.790Z,7.90
2017-12-23T04:05:40.045Z,7.90
2017-12-23T04:08:06.538Z,7.90
2017-12-23T04:10:32.972Z,7.90
2017-12-23T04:12:59.534Z,7.70
2017-12-23T04:15:25.982Z,7.90
2017-12-23T04:17:52.449Z,7.90
2017-12-23T04:20:18.942Z,8.20
2017-12-23T04:22:45.369Z,7.90
2017-12-23T04:25:11.922Z,8.00
2017-12-23T04:27:38.404Z,7.90
2017-12-23T04:30:06.066Z,7.90
2017-12-23T04:32:32.595Z,7.90
2017-12-23T04:34:59.091Z,8.00
2017-12-23T04:37:25.522Z,7.90
2017-12-23T04:39:51.946Z,8.00
2017-12-23T04:42:19.167Z,8.00
2017-12-23T04:44:45.631Z,8.00
2017-12-23T04:47:12.132Z,8.00
2017-12-23T04:49:39.346Z,8.00
2017-12-23T04:52:06.705Z,7.90
2017-12-23T04:54:33.124Z,8.10
2017-12-23T04:57:00.354Z,8.00
2017-12-23T04:59:26.857Z,7.90
2017-12-23T05:01:53.394Z,8.00
2017-12-23T05:04:19.879Z,8.00
2017-12-23T05:06:47.119Z,8.00
2017-12-23T05:09:13.668Z,7.90
2017-12-23T05:11:40.132Z,8.00
2017-12-23T05:14:06.585Z,8.00
2017-12-23T05:16:32.985Z,8.00
2017-12-23T05:19:00.960Z,7.90
2017-12-23T05:21:27.511Z,7.90
2017-12-23T05:23:54.032Z,8.00
2017-12-23T05:26:21.280Z,7.90
2017-12-23T05:28:48.458Z,7.90
2017-12-23T05:31:16.400Z,7.90
2017-12-23T05:33:43.045Z,7.90
2017-12-23T05:36:11.014Z,7.90
2017-12-23T05:38:37.435Z,7.90
2017-12-23T05:41:04.174Z,7.90
2017-12-23T05:43:30.621Z,7.90
2017-12-23T05:45:57.845Z,7.90
2017-12-23T05:48:24.294Z,7.90
2017-12-23T05:50:50.737Z,7.90
2017-12-23T05:53:17.450Z,7.90
2017-12-23T05:55:44.042Z,7.90
2017-12-23T05:58:10.590Z,7.90
2017-12-23T06:00:37.794Z,7.90
2017-12-23T06:03:04.316Z,7.90
2017-12-23T06:05:31.599Z,7.90
2017-12-23T06:07:58.116Z,7.90
2017-12-23T06:10:24.659Z,7.90
2017-12-23T06:12:51.206Z,7.90
2017-12-23T06:15:17.752Z,7.90
2017-12-23T06:17:44.309Z,7.90
2017-12-23T06:20:11.594Z,7.90
2017-12-23T06:22:38.067Z,7.80
2017-12-23T06:25:04.528Z,7.90
2017-12-23T06:27:31.023Z,7.90
2017-12-23T06:29:57.498Z,7.90
2017-12-23T06:32:23.950Z,7.90
2017-12-23T06:34:50.414Z,7.90
2017-12-23T06:37:16.826Z,7.90
2017-12-23T06:39:43.306Z,7.90
2017-12-23T06:42:09.734Z,7.80
2017-12-23T06:44:36.166Z,7.80
2017-12-23T06:47:02.844Z,7.80
2017-12-23T06:49:30.055Z,7.80
2017-12-23T06:51:56.487Z,7.80
2017-12-23T06:54:22.937Z,7.80
2017-12-23T06:56:49.392Z,7.80
2017-12-23T06:59:15.904Z,7.80
2017-12-23T07:01:42.407Z,7.90
2017-12-23T07:04:09.268Z,7.90
2017-12-23T07:06:35.914Z,7.90
2017-12-23T07:09:02.468Z,7.90
2017-12-23T07:11:30.089Z,7.90
2017-12-23T07:13:57.330Z,7.80
2017-12-23T07:16:24.917Z,7.80
2017-12-23T07:18:51.653Z,7.80
2017-12-23T07:21:20.053Z,7.80
2017-12-23T07:23:47.889Z,7.80
2017-12-23T07:26:16.789Z,7.80
2017-12-23T07:28:45.072Z,7.80
2017-12-23T07:31:11.808Z,7.80
2017-12-23T07:33:39.926Z,7.80
2017-12-23T07:36:07.481Z,7.80
2017-12-23T07:38:34.226Z,7.80
2017-12-23T07:41:01.090Z,7.80
2017-12-23T07:43:28.971Z,7.80
2017-12-23T07:45:58.986Z,8.00
2017-12-23T07:48:26.465Z,7.90
2017-12-23T07:50:54.552Z,7.80
2017-12-23T07:53:22.494Z,7.80
2017-12-23T07:55:49.084Z,7.80
2017-12-23T07:58:16.059Z,7.90
2017-12-23T08:00:42.945Z,7.90
2017-12-23T08:03:12.268Z,7.90
2017-12-23T08:05:40.459Z,7.90
2017-12-23T08:08:07.916Z,7.90
2017-12-23T08:10:34.538Z,7.90
2017-12-23T08:13:04.270Z,7.90
2017-12-23T08:15:32.805Z,7.90
2017-12-23T08:17:59.589Z,7.90
2017-12-23T08:20:27.815Z,7.90
2017-12-23T08:22:54.439Z,7.90
2017-12-23T08:25:21.052Z,7.90
2017-12-23T08:27:48.706Z,8.50
2017-12-23T08:30:16.849Z,7.90
2017-12-23T08:32:44.731Z,7.90
2017-12-23T08:35:12.637Z,7.90
2017-12-23T08:37:39.962Z,7.90
2017-12-23T08:40:07.861Z,7.90
2017-12-23T08:42:34.700Z,7.90
2017-12-23T08:45:01.308Z,8.00
2017-12-23T08:47:29.284Z,8.00
2017-12-23T08:49:56.602Z,8.00
2017-12-23T08:52:23.713Z,8.00
2017-12-23T08:54:50.380Z,8.00
2017-12-23T08:57:18.261Z,8.00
2017-12-23T08:59:46.316Z,8.00
2017-12-23T09:02:13.099Z,8.00
2017-12-23T09:04:39.748Z,8.00
2017-12-23T09:07:06.614Z,8.00
2017-12-23T09:09:34.319Z,8.00
2017-12-23T09:12:02.088Z,8.00
2017-12-23T09:14:29.155Z,8.00
2017-12-23T09:16:56.189Z,8.00
2017-12-23T09:19:23.075Z,8.00
2017-12-23T09:21:50.973Z,8.00
2017-12-23T09:24:18.322Z,8.00
2017-12-23T09:26:44.883Z,8.10
2017-12-23T09:29:12.084Z,8.10
2017-12-23T09:31:40.521Z,8.10
2017-12-23T09:34:07.673Z,8.10
2017-12-23T09:36:34.860Z,8.10
2017-12-23T09:39:01.718Z,8.10
2017-12-23T09:41:29.505Z,8.10
2017-12-23T09:43:59.352Z,8.10
2017-12-23T09:46:26.234Z,8.10
2017-12-23T09:48:53.773Z,8.10
2017-12-23T09:51:22.785Z,8.10
2017-12-23T09:53:49.433Z,8.10
2017-12-23T09:56:16.281Z,8.20
2017-12-23T09:58:43.052Z,8.20
2017-12-23T10:01:09.964Z,8.20
2017-12-23T10:03:39.221Z,8.20
2017-12-23T10:06:06.357Z,8.20
2017-12-23T10:08:32.957Z,8.20
2017-12-23T10:11:01.426Z,8.20
2017-12-23T10:13:28.004Z,8.10
2017-12-23T10:15:54.641Z,8.20
2017-12-23T10:18:21.491Z,8.30
2017-12-23T10:20:48.679Z,8.20
2017-12-23T10:23:16.888Z,8.20
2017-12-23T10:28:39.104Z,8.20
2017-12-23T10:31:05.711Z,8.20
2017-12-23T10:33:32.255Z,8.20
2017-12-23T10:35:58.805Z,8.20
2017-12-23T10:38:25.317Z,8.20
2017-12-23T10:40:52.471Z,8.20
2017-12-23T10:43:19.480Z,8.20
2017-12-23T10:45:45.936Z,8.20
2017-12-23T10:48:13.172Z,8.30
2017-12-23T10:50:39.658Z,8.20
2017-12-23T10:53:06.035Z,8.30
2017-12-23T10:55:32.495Z,8.30
2017-12-23T10:57:59.002Z,8.30
2017-12-23T11:00:25.574Z,8.20
2017-12-23T11:02:52.149Z,8.20
2017-12-23T11:05:18.573Z,8.20
2017-12-23T11:07:45.793Z,8.20
2017-12-23T11:10:12.237Z,8.20
2017-12-23T11:12:39.424Z,8.10
2017-12-23T11:15:05.823Z,8.20
2017-12-23T11:17:32.251Z,8.10
2017-12-23T11:19:58.731Z,7.70
2017-12-23T11:22:25.507Z,8.10
2017-12-23T11:24:52.031Z,8.10
2017-12-23T11:27:18.843Z,8.20
2017-12-23T11:29:46.100Z,8.20
2017-12-23T11:32:12.690Z,8.10
2017-12-23T11:34:39.184Z,8.20
2017-12-23T11:37:05.678Z,8.30
2017-12-23T11:39:32.241Z,8.20
2017-12-23T11:41:59.485Z,8.30
2017-12-23T11:44:26.754Z,8.30
2017-12-23T11:46:53.239Z,8.30
2017-12-23T11:49:19.698Z,8.30
2017-12-23T11:51:46.147Z,8.30
2017-12-23T11:54:12.637Z,8.30
2017-12-23T11:56:39.169Z,8.20
2017-12-23T11:59:07.287Z,8.20
2017-12-23T12:01:33.766Z,8.30
2017-12-23T12:04:00.986Z,8.30
2017-12-23T12:06:27.820Z,8.30
2017-12-23T12:08:54.363Z,8.30
2017-12-23T12:11:21.669Z,8.30
2017-12-23T12:13:48.870Z,8.30
2017-12-23T12:16:15.296Z,8.30
2017-12-23T12:18:41.843Z,8.30
2017-12-23T12:21:08.333Z,8.30
2017-12-23T12:23:34.803Z,8.20
2017-12-23T12:26:01.208Z,7.90
2017-12-23T12:28:27.651Z,8.30
2017-12-23T12:30:54.854Z,8.30
2017-12-23T12:33:21.385Z,8.30
2017-12-23T12:35:47.830Z,8.30
2017-12-23T12:38:14.349Z,8.40
2017-12-23T12:40:42.338Z,8.30
2017-12-23T12:43:08.781Z,8.30
2017-12-23T12:45:35.299Z,8.30
2017-12-23T12:48:01.874Z,8.30
2017-12-23T12:50:28.387Z,8.30
2017-12-23T12:52:56.971Z,8.30
2017-12-23T12:55:26.060Z,8.20
2017-12-23T12:57:53.624Z,8.20
2017-12-23T13:00:21.178Z,8.40
2017-12-23T13:02:49.025Z,8.20
2017-12-23T13:05:16.619Z,8.20
2017-12-23T13:07:44.496Z,8.20
2017-12-23T13:10:11.219Z,8.20
2017-12-23T13:12:37.713Z,8.20
2017-12-23T13:15:04.734Z,8.20
2017-12-23T13:17:31.191Z,8.20
2017-12-23T13:19:57.683Z,8.20
2017-12-23T13:22:24.140Z,8.20
2017-12-23T13:24:50.674Z,8.20
2017-12-23T13:27:19.536Z,8.20
2017-12-23T13:29:46.909Z,8.20
2017-12-23T13:32:13.378Z,8.20
2017-12-23T13:34:39.929Z,8.20
2017-12-23T13:37:06.680Z,8.20
2017-12-23T13:39:33.866Z,8.20
2017-12-23T13:42:00.295Z,8.20
2017-12-23T13:44:26.768Z,8.20
2017-12-23T13:46:53.187Z,8.30
2017-12-23T13:49:19.658Z,8.20
2017-12-23T13:51:46.846Z,8.30
2017-12-23T13:54:14.196Z,8.30
2017-12-23T13:56:40.865Z,8.20
2017-12-23T13:59:07.637Z,8.30
2017-12-23T14:01:34.164Z,8.20
2017-12-23T14:04:00.986Z,8.20
2017-12-23T14:06:27.732Z,8.30
2017-12-23T14:08:56.356Z,8.30
2017-12-23T14:11:23.586Z,8.30
2017-12-23T14:13:50.120Z,8.30
2017-12-23T14:16:16.790Z,8.30
2017-12-23T14:18:43.359Z,8.40
2017-12-23T14:21:09.968Z,8.30
2017-12-23T14:23:39.226Z,8.40
2017-12-23T14:26:06.502Z,8.30
2017-12-23T14:28:35.374Z,8.40
2017-12-23T14:31:02.624Z,8.40
2017-12-23T14:33:29.816Z,8.40
2017-12-23T14:35:56.257Z,8.40
2017-12-23T14:38:26.125Z,8.60
2017-12-23T14:40:52.597Z,8.00
2017-12-23T14:43:19.041Z,8.30
2017-12-23T14:45:45.561Z,8.40
2017-12-23T14:48:11.990Z,8.40
2017-12-23T14:50:39.282Z,8.40
2017-12-23T14:53:05.742Z,8.40
2017-12-23T14:55:32.187Z,8.40
2017-12-23T14:57:59.327Z,8.40
2017-12-23T15:00:26.561Z,8.40
2017-12-23T15:02:53.002Z,8.40
2017-12-23T15:05:19.772Z,8.50
2017-12-23T15:07:46.217Z,8.50
2017-12-23T15:10:12.738Z,8.50
2017-12-23T15:12:39.351Z,8.40
2017-12-23T15:15:08.760Z,8.60
2017-12-23T15:17:35.267Z,8.50
2017-12-23T15:20:03.695Z,8.50
2017-12-23T15:22:30.595Z,8.50
2017-12-23T15:24:57.114Z,8.60
2017-12-23T15:27:23.804Z,8.20
2017-12-23T15:29:50.987Z,8.50
2017-12-23T15:32:17.669Z,8.50
2017-12-23T15:34:44.242Z,8.50
2017-12-23T15:37:11.484Z,8.50
2017-12-23T15:39:38.162Z,8.50
2017-12-23T15:42:05.941Z,8.50
2017-12-23T15:44:34.725Z,8.50
2017-12-23T15:47:01.458Z,8.50
2017-12-23T15:49:28.054Z,8.50
2017-12-23T15:51:54.739Z,8.50
2017-12-23T15:54:21.246Z,8.50
2017-12-23T15:56:47.843Z,8.50
2017-12-23T15:59:14.273Z,8.20
2017-12-23T16:01:41.487Z,8.50
2017-12-23T16:04:07.979Z,8.50
2017-12-23T16:06:34.358Z,8.70
2017-12-23T16:09:00.750Z,8.60
2017-12-23T16:11:27.220Z,8.20
2017-12-23T16:13:53.562Z,8.60
2017-12-23T16:16:19.989Z,8.60
2017-12-23T16:18:46.359Z,8.60
2017-12-23T16:21:12.796Z,8.60
2017-12-23T16:23:39.135Z,8.60
2017-12-23T16:26:06.037Z,8.60
2017-12-23T16:28:33.213Z,8.60
2017-12-23T16:30:59.648Z,8.50
2017-12-23T16:33:26.008Z,8.60
2017-12-23T16:35:52.391Z,8.50
2017-12-23T16:38:18.777Z,8.70
2017-12-23T16:40:45.154Z,8.70
2017-12-23T16:43:12.349Z,8.80
2017-12-23T16:45:38.727Z,8.70
2017-12-23T16:48:05.989Z,8.10
2017-12-23T16:50:32.446Z,8.80
2017-12-23T16:52:59.621Z,8.80
2017-12-23T16:55:26.930Z,8.80
2017-12-23T16:57:53.370Z,8.80
2017-12-23T17:00:20.288Z,8.80
2017-12-23T17:02:46.638Z,8.80
2017-12-23T17:05:13.073Z,8.80
2017-12-23T17:07:39.414Z,8.90
2017-12-23T17:10:06.578Z,8.80
2017-12-23T17:12:33.846Z,8.80
2017-12-23T17:15:01.048Z,8.80
2017-12-23T17:17:27.405Z,8.80
2017-12-23T17:19:53.776Z,8.90
2017-12-23T17:22:20.146Z,8.90
2017-12-23T17:24:46.601Z,8.90
2017-12-23T17:27:13.002Z,9.00
2017-12-23T17:29:51.768Z,8.90
2017-12-23T17:32:18.185Z,9.00
2017-12-23T17:34:44.519Z,8.80
2017-12-23T17:37:10.950Z,9.00
2017-12-23T17:39:37.366Z,9.00
2017-12-23T17:42:04.261Z,9.10
2017-12-23T17:44:30.698Z,9.00
2017-12-23T17:46:57.071Z,9.00
2017-12-23T17:49:23.444Z,9.00
2017-12-23T17:51:49.826Z,9.10
2017-12-23T17:54:16.216Z,9.00
2017-12-23T17:56:43.365Z,9.00
2017-12-23T17:59:09.797Z,9.00
2017-12-23T18:01:36.174Z,9.00
2017-12-23T18:04:02.888Z,9.00
2017-12-23T18:06:29.248Z,9.00
2017-12-23T18:08:55.658Z,9.00
2017-12-23T18:11:22.734Z,9.00
2017-12-23T18:13:49.106Z,9.00
2017-12-23T18:16:16.257Z,9.10
2017-12-23T18:18:42.632Z,9.00
2017-12-23T18:21:08.979Z,9.00
2017-12-23T18:23:36.069Z,9.00
2017-12-23T18:26:02.472Z,9.00
2017-12-23T18:28:28.850Z,9.00
2017-12-23T18:30:55.298Z,9.00
2017-12-23T18:33:21.688Z,9.00
2017-12-23T18:35:49.592Z,9.00
2017-12-23T18:38:16.749Z,9.10
2017-12-23T18:40:43.206Z,9.10
2017-12-23T18:43:10.330Z,9.10
2017-12-23T18:45:36.651Z,9.00
2017-12-23T18:48:03.499Z,9.00
2017-12-23T18:50:29.898Z,9.10
2017-12-23T18:52:57.102Z,9.00
2017-12-23T18:55:23.515Z,9.10
2017-12-23T18:57:49.874Z,9.00
2017-12-23T19:00:16.258Z,8.80
2017-12-23T19:02:42.651Z,9.00
2017-12-23T19:05:09.125Z,9.00
2017-12-23T19:07:35.467Z,9.10
2017-12-23T19:10:01.878Z,9.10
2017-12-23T19:12:28.274Z,9.10
2017-12-23T19:14:54.615Z,9.10
2017-12-23T19:17:21.757Z,9.10
2017-12-23T19:19:48.161Z,9.10
2017-12-23T19:22:15.229Z,9.00
2017-12-23T19:24:42.401Z,9.00
2017-12-23T19:27:08.782Z,9.00
2017-12-23T19:29:35.273Z,9.10
2017-12-23T19:32:02.413Z,9.00
2017-12-23T19:34:28.781Z,9.00
2017-12-23T19:36:55.915Z,9.00
2017-12-23T19:39:22.282Z,9.00
2017-12-23T19:41:49.419Z,9.00
2017-12-23T19:44:15.789Z,9.00
2017-12-23T19:46:42.922Z,9.00
2017-12-23T19:49:09.328Z,8.90
2017-12-23T19:51:35.725Z,9.00
2017-12-23T19:54:03.461Z,8.90
2017-12-23T19:56:29.909Z,8.90
2017-12-23T19:58:56.290Z,9.00
2017-12-23T20:01:22.684Z,9.00
2017-12-23T20:03:49.121Z,9.00
2017-12-23T20:06:15.512Z,9.00
2017-12-23T20:08:41.937Z,8.90
2017-12-23T20:11:08.459Z,9.00
2017-12-23T20:13:34.914Z,8.90
2017-12-23T20:16:01.317Z,8.90
2017-12-23T20:18:28.473Z,9.00
2017-12-23T20:20:54.879Z,9.00
2017-12-23T20:23:21.275Z,9.00
2017-12-23T20:25:47.705Z,9.00
2017-12-23T20:28:14.146Z,9.00
2017-12-23T20:30:41.322Z,9.00
2017-12-23T20:33:07.709Z,9.00
2017-12-23T20:35:34.060Z,9.10
2017-12-23T20:38:00.461Z,9.00
2017-12-23T20:40:26.874Z,9.10
2017-12-23T20:42:53.607Z,9.10
2017-12-23T20:45:20.033Z,9.10
2017-12-23T20:47:46.431Z,8.80
2017-12-23T20:50:13.555Z,9.00
2017-12-23T20:52:39.914Z,9.00
2017-12-23T20:55:06.343Z,9.00
2017-12-23T20:57:33.513Z,9.00
2017-12-23T20:59:59.897Z,9.00
2017-12-23T21:02:26.301Z,9.10
2017-12-23T21:04:52.716Z,9.10
2017-12-23T21:07:19.100Z,9.10
2017-12-23T21:09:46.214Z,9.00
2017-12-23T21:12:12.651Z,9.00
2017-12-23T21:14:39.041Z,9.10
2017-12-23T21:17:05.459Z,9.10
2017-12-23T21:19:31.820Z,9.00
2017-12-23T21:21:58.195Z,9.10
2017-12-23T21:24:25.351Z,9.10
2017-12-23T21:26:52.454Z,9.10
2017-12-23T21:29:18.782Z,9.10
2017-12-23T21:31:45.196Z,9.20
2017-12-23T21:34:11.607Z,9.10
2017-12-23T21:36:37.979Z,9.10
2017-12-23T21:39:05.114Z,9.10
2017-12-23T21:41:31.479Z,9.10
2017-12-23T21:43:57.859Z,9.10
2017-12-23T21:46:24.245Z,9.10
2017-12-23T21:48:50.647Z,9.10
2017-12-23T21:51:17.679Z,9.10
2017-12-23T21:53:44.009Z,9.10
2017-12-23T21:56:11.173Z,9.10
2017-12-23T21:58:37.592Z,9.10
2017-12-23T22:01:04.224Z,9.10
2017-12-23T22:03:30.631Z,9.10
2017-12-23T22:05:57.063Z,9.10
2017-12-23T22:08:24.187Z,9.20
2017-12-23T22:10:51.621Z,9.10
2017-12-23T22:13:18.035Z,9.70
2017-12-23T22:15:45.150Z,9.10
2017-12-23T22:18:11.586Z,8.70
2017-12-23T22:20:38.003Z,9.20
2017-12-23T22:23:05.214Z,9.20
2017-12-23T22:25:31.602Z,9.20
2017-12-23T22:27:57.985Z,9.10
2017-12-23T22:30:24.307Z,9.20
2017-12-23T22:32:50.718Z,9.10
2017-12-23T22:35:18.188Z,9.10
2017-12-23T22:37:44.568Z,9.10
2017-12-23T22:40:10.956Z,9.10
2017-12-23T22:42:37.330Z,9.10
2017-12-23T22:45:04.150Z,9.10
2017-12-23T22:47:30.530Z,9.10
2017-12-23T22:49:57.675Z,9.10
2017-12-23T22:52:24.796Z,9.10
2017-12-23T22:54:51.215Z,9.10
2017-12-23T22:57:17.591Z,9.10
2017-12-23T22:59:43.992Z,8.90
2017-12-23T23:02:10.461Z,9.10
2017-12-23T23:04:36.954Z,9.10
2017-12-23T23:07:03.875Z,9.10
2017-12-23T23:09:30.394Z,9.10
2017-12-23T23:11:56.768Z,9.10
2017-12-23T23:14:23.144Z,9.10
2017-12-23T23:16:50.315Z,9.10
2017-12-23T23:19:16.755Z,9.00
2017-12-23T23:21:43.143Z,9.10
2017-12-23T23:24:09.468Z,9.10
2017-12-23T23:26:35.887Z,9.10
2017-12-23T23:29:03.424Z,9.10
2017-12-23T23:31:29.867Z,9.10
2017-12-23T23:33:56.191Z,9.10
2017-12-23T23:36:22.841Z,9.10
2017-12-23T23:38:49.247Z,9.00
2017-12-23T23:41:15.600Z,9.00
2017-12-23T23:43:42.011Z,9.00
2017-12-23T23:46:08.397Z,9.00
2017-12-23T23:48:35.470Z,9.10
2017-12-23T23:51:01.820Z,9.00
2017-12-23T23:53:28.217Z,9.10
2017-12-23T23:55:55.293Z,9.10
2017-12-23T23:58:21.649Z,9.00
